createdAt,value
2023-03-26T00:00:38.272Z,66.80
2023-03-26T00:01:37.281Z,66.81
2023-03-26T00:02:37.428Z,66.79
2023-03-26T00:03:38.109Z,66.78
2023-03-26T00:04:37.166Z,66.79
2023-03-26T00:05:37.292Z,66.79
2023-03-26T00:06:37.274Z,66.78
2023-03-26T00:07:37.162Z,66.81
2023-03-26T00:08:38.027Z,66.82
2023-03-26T00:09:37.105Z,66.81
2023-03-26T00:10:37.307Z,66.81
2023-03-26T00:11:37.145Z,66.82
2023-03-26T00:12:37.085Z,66.82
2023-03-26T00:13:38.052Z,66.82
2023-03-26T00:14:37.023Z,66.81
2023-03-26T00:15:37.046Z,66.82
2023-03-26T00:16:37.073Z,66.81
2023-03-26T00:17:37.033Z,66.83
2023-03-26T00:18:36.977Z,66.80
2023-03-26T00:19:38.893Z,66.81
2023-03-26T00:20:36.968Z,66.82
2023-03-26T00:21:36.942Z,66.82
2023-03-26T00:22:36.961Z,66.81
2023-03-26T00:23:36.928Z,66.81
2023-03-26T00:24:37.870Z,66.80
2023-03-26T00:25:36.892Z,66.79
2023-03-26T00:26:36.887Z,66.77
2023-03-26T00:27:36.889Z,66.78
2023-03-26T00:28:36.844Z,66.78
2023-03-26T00:29:36.938Z,66.75
2023-03-26T00:30:37.974Z,66.76
2023-03-26T00:31:36.869Z,66.77
2023-03-26T00:32:36.821Z,66.75
2023-03-26T00:33:36.784Z,66.76
2023-03-26T00:34:36.843Z,66.74
2023-03-26T00:35:36.821Z,66.74
2023-03-26T00:36:37.772Z,66.72
2023-03-26T00:37:36.753Z,66.71
2023-03-26T00:38:36.754Z,66.71
2023-03-26T00:39:36.850Z,66.69
2023-03-26T00:40:36.747Z,66.69
2023-03-26T00:41:36.718Z,66.69
2023-03-26T00:42:37.614Z,66.68
2023-03-26T00:43:36.723Z,66.69
2023-03-26T00:44:36.699Z,66.69
2023-03-26T00:45:36.791Z,66.69
2023-03-26T00:46:36.792Z,66.66
2023-03-26T00:47:36.685Z,66.67
2023-03-26T00:48:44.639Z,66.65
2023-03-26T00:49:38.124Z,66.65
2023-03-26T00:50:36.645Z,66.63
2023-03-26T00:51:36.586Z,66.61
2023-03-26T00:52:36.676Z,66.59
2023-03-26T00:53:37.513Z,66.60
2023-03-26T00:54:37.467Z,66.59
2023-03-26T00:55:36.552Z,66.59
2023-03-26T00:56:36.514Z,66.59
2023-03-26T00:57:36.610Z,66.59
2023-03-26T00:58:36.466Z,66.59
2023-03-26T00:59:37.429Z,66.58
2023-03-26T01:00:36.444Z,66.58
2023-03-26T01:01:36.453Z,66.56
2023-03-26T01:02:36.516Z,66.57
2023-03-26T01:03:36.487Z,66.57
2023-03-26T01:04:37.533Z,66.57
2023-03-26T01:05:36.484Z,66.57
2023-03-26T01:06:36.818Z,66.57
2023-03-26T01:07:36.366Z,66.56
2023-03-26T01:08:36.374Z,66.57
2023-03-26T01:09:37.266Z,66.58
2023-03-26T01:10:36.303Z,66.58
2023-03-26T01:11:36.398Z,66.61
2023-03-26T01:12:36.652Z,66.62
2023-03-26T01:13:36.298Z,66.62
2023-03-26T01:14:36.284Z,66.61
2023-03-26T01:15:37.311Z,66.61
2023-03-26T01:16:36.273Z,66.60
2023-03-26T01:17:36.287Z,66.60
2023-03-26T01:18:36.254Z,66.62
2023-03-26T01:19:37.187Z,66.65
2023-03-26T01:20:36.221Z,66.63
2023-03-26T01:21:37.122Z,66.64
2023-03-26T01:22:36.182Z,66.67
2023-03-26T01:23:36.135Z,66.71
2023-03-26T01:24:36.155Z,66.72
2023-03-26T01:25:36.152Z,66.74
2023-03-26T01:26:36.131Z,66.77
2023-03-26T01:27:37.026Z,66.80
2023-03-26T01:28:36.109Z,66.82
2023-03-26T01:29:36.096Z,66.86
2023-03-26T01:30:36.133Z,66.86
2023-03-26T01:31:36.050Z,66.89
2023-03-26T01:32:37.004Z,66.89
2023-03-26T01:33:36.149Z,66.90
2023-03-26T01:34:35.990Z,66.94
2023-03-26T01:35:36.111Z,66.93
2023-03-26T01:36:35.972Z,66.91
2023-03-26T01:37:36.931Z,66.92
2023-03-26T01:38:35.968Z,66.91
2023-03-26T01:39:36.170Z,66.92
2023-03-26T01:40:35.979Z,66.95
2023-03-26T01:41:35.909Z,66.95
2023-03-26T01:42:36.858Z,66.95
2023-03-26T01:43:35.926Z,66.94
2023-03-26T01:44:35.887Z,66.93
2023-03-26T01:45:35.866Z,66.92
2023-03-26T01:46:35.974Z,66.92
2023-03-26T01:47:35.970Z,66.92
2023-03-26T01:48:36.800Z,66.94
2023-03-26T01:49:35.866Z,66.95
2023-03-26T01:50:35.872Z,66.97
2023-03-26T01:51:35.856Z,66.97
2023-03-26T01:52:35.766Z,66.99
2023-03-26T01:53:35.817Z,67.01
2023-03-26T01:54:37.388Z,67.04
2023-03-26T01:55:35.791Z,67.03
2023-03-26T01:56:35.794Z,67.02
2023-03-26T01:57:35.720Z,67.01
2023-03-26T01:58:35.718Z,67.00
2023-03-26T01:59:35.721Z,66.97
2023-03-26T02:00:36.648Z,66.98
2023-03-26T02:01:35.791Z,66.97
2023-03-26T02:02:35.750Z,66.96
2023-03-26T02:03:35.763Z,66.94
2023-03-26T02:04:35.670Z,66.93
2023-03-26T02:05:35.619Z,66.93
2023-03-26T02:06:36.652Z,66.93
2023-03-26T02:07:35.572Z,66.92
2023-03-26T02:08:36.243Z,66.93
2023-03-26T02:09:35.585Z,66.93
2023-03-26T02:10:35.557Z,66.93
2023-03-26T02:11:36.138Z,66.93
2023-03-26T02:12:36.452Z,66.91
2023-03-26T02:13:36.502Z,66.91
2023-03-26T02:14:35.487Z,66.92
2023-03-26T02:15:35.501Z,66.93
2023-03-26T02:16:36.484Z,66.92
2023-03-26T02:17:36.476Z,66.90
2023-03-26T02:18:35.567Z,66.90
2023-03-26T02:19:35.474Z,66.90
2023-03-26T02:20:35.462Z,66.90
2023-03-26T02:21:35.437Z,66.90
2023-03-26T02:22:35.803Z,66.88
2023-03-26T02:23:36.317Z,66.90
2023-03-26T02:24:35.729Z,66.91
2023-03-26T02:25:35.424Z,66.92
2023-03-26T02:26:35.694Z,66.92
2023-03-26T02:27:35.653Z,66.92
2023-03-26T02:28:35.328Z,66.90
2023-03-26T02:29:36.337Z,66.88
2023-03-26T02:30:35.351Z,66.87
2023-03-26T02:31:35.303Z,66.87
2023-03-26T02:32:35.298Z,66.91
2023-03-26T02:33:35.288Z,66.95
2023-03-26T02:34:35.271Z,66.96
2023-03-26T02:35:36.302Z,66.98
2023-03-26T02:36:35.343Z,66.98
2023-03-26T02:37:35.231Z,66.97
2023-03-26T02:39:34.110Z,66.58
2023-03-26T02:40:34.056Z,66.96
2023-03-26T02:41:34.998Z,67.14
2023-03-26T02:42:34.079Z,67.24
2023-03-26T02:43:34.049Z,67.28
2023-03-26T02:44:34.017Z,67.27
2023-03-26T02:45:34.016Z,67.28
2023-03-26T02:46:34.972Z,67.23
2023-03-26T02:47:34.198Z,67.20
2023-03-26T02:48:33.964Z,67.19
2023-03-26T02:49:33.943Z,67.19
2023-03-26T02:50:33.921Z,67.14
2023-03-26T02:51:33.975Z,67.10
2023-03-26T02:52:34.877Z,67.06
2023-03-26T02:53:33.891Z,67.05
2023-03-26T02:54:33.910Z,67.04
2023-03-26T02:55:33.865Z,67.02
2023-03-26T02:56:33.901Z,66.97
2023-03-26T02:57:33.868Z,66.97
2023-03-26T02:58:34.775Z,66.97
2023-03-26T02:59:33.838Z,66.94
2023-03-26T03:00:33.852Z,66.94
2023-03-26T03:01:33.853Z,66.92
2023-03-26T03:02:33.823Z,66.92
2023-03-26T03:03:33.856Z,66.92
2023-03-26T03:04:34.679Z,66.91
2023-03-26T03:05:33.740Z,66.90
2023-03-26T03:06:33.756Z,66.88
2023-03-26T03:07:33.742Z,66.87
2023-03-26T03:08:33.751Z,66.89
2023-03-26T03:09:34.644Z,66.89
2023-03-26T03:10:33.707Z,66.90
2023-03-26T03:11:33.713Z,66.89
2023-03-26T03:12:33.736Z,66.89
2023-03-26T03:13:33.680Z,66.87
2023-03-26T03:14:34.591Z,66.85
2023-03-26T03:15:33.640Z,66.85
2023-03-26T03:16:33.662Z,66.83
2023-03-26T03:17:33.626Z,66.83
2023-03-26T03:18:33.614Z,66.82
2023-03-26T03:19:33.591Z,66.82
2023-03-26T03:20:34.550Z,66.83
2023-03-26T03:21:33.594Z,66.81
2023-03-26T03:22:33.622Z,66.82
2023-03-26T03:23:33.540Z,66.83
2023-03-26T03:24:33.531Z,66.80
2023-03-26T03:25:33.509Z,66.78
2023-03-26T03:26:34.420Z,66.76
2023-03-26T03:27:33.464Z,66.76
2023-03-26T03:28:33.488Z,66.75
2023-03-26T03:29:33.461Z,66.74
2023-03-26T03:30:33.472Z,66.72
2023-03-26T03:31:33.491Z,66.72
2023-03-26T03:32:34.445Z,66.70
2023-03-26T03:33:33.409Z,66.73
2023-03-26T03:34:33.408Z,66.73
2023-03-26T03:35:33.407Z,66.73
2023-03-26T03:36:33.402Z,66.72
2023-03-26T03:37:34.415Z,66.73
2023-03-26T03:38:33.408Z,66.71
2023-03-26T03:39:33.315Z,66.72
2023-03-26T03:40:33.347Z,66.73
2023-03-26T03:41:33.306Z,66.73
2023-03-26T03:42:34.215Z,66.71
2023-03-26T03:43:33.280Z,66.73
2023-03-26T03:44:33.254Z,66.72
2023-03-26T03:45:33.268Z,66.71
2023-03-26T03:46:33.314Z,66.73
2023-03-26T03:47:34.188Z,66.74
2023-03-26T03:48:33.236Z,66.75
2023-03-26T03:49:33.200Z,66.75
2023-03-26T03:50:35.689Z,66.75
2023-03-26T03:51:33.182Z,66.76
2023-03-26T03:52:33.147Z,66.73
2023-03-26T03:53:34.149Z,66.76
2023-03-26T03:54:33.171Z,66.75
2023-03-26T03:55:33.133Z,66.74
2023-03-26T03:56:33.131Z,66.75
2023-03-26T03:57:33.099Z,66.77
2023-03-26T03:58:34.100Z,66.76
2023-03-26T03:59:33.083Z,66.75
2023-03-26T04:00:33.054Z,66.76
2023-03-26T04:01:33.084Z,66.76
2023-03-26T04:02:33.108Z,66.78
2023-03-26T04:03:34.525Z,66.78
2023-03-26T04:04:33.112Z,66.78
2023-03-26T04:05:32.979Z,66.77
2023-03-26T04:06:32.979Z,66.78
2023-03-26T04:07:32.998Z,66.78
2023-03-26T04:08:33.910Z,66.77
2023-03-26T04:09:32.959Z,66.77
2023-03-26T04:10:32.925Z,66.78
2023-03-26T04:11:32.927Z,66.74
2023-03-26T04:12:32.890Z,66.75
2023-03-26T04:13:32.943Z,66.74
2023-03-26T04:14:33.807Z,66.76
2023-03-26T04:15:32.911Z,66.74
2023-03-26T04:16:32.875Z,66.72
2023-03-26T04:17:32.895Z,66.74
2023-03-26T04:18:32.962Z,66.76
2023-03-26T04:19:32.810Z,66.74
2023-03-26T04:20:33.776Z,66.74
2023-03-26T04:21:32.802Z,66.75
2023-03-26T04:22:32.795Z,66.76
2023-03-26T04:23:32.801Z,66.77
2023-03-26T04:24:32.805Z,66.81
2023-03-26T04:25:32.785Z,66.82
2023-03-26T04:26:33.659Z,66.85
2023-03-26T04:27:32.687Z,66.85
2023-03-26T04:28:32.704Z,66.87
2023-03-26T04:29:32.674Z,66.87
2023-03-26T04:30:32.777Z,66.90
2023-03-26T04:31:32.703Z,66.94
2023-03-26T04:32:33.631Z,66.94
2023-03-26T04:33:32.680Z,66.96
2023-03-26T04:34:32.717Z,66.99
2023-03-26T04:35:32.656Z,67.00
2023-03-26T04:36:32.617Z,67.01
2023-03-26T04:37:32.595Z,67.00
2023-03-26T04:38:33.634Z,67.01
2023-03-26T04:39:32.573Z,67.02
2023-03-26T04:40:32.610Z,66.99
2023-03-26T04:41:32.569Z,66.96
2023-03-26T04:42:32.560Z,66.96
2023-03-26T04:43:32.518Z,66.96
2023-03-26T04:44:33.444Z,66.97
2023-03-26T04:45:32.543Z,66.98
2023-03-26T04:46:32.490Z,66.97
2023-03-26T04:47:32.505Z,66.99
2023-03-26T04:48:32.481Z,66.98
2023-03-26T04:49:33.407Z,67.00
2023-03-26T04:50:32.453Z,67.00
2023-03-26T04:51:32.394Z,67.01
2023-03-26T04:52:32.408Z,67.03
2023-03-26T04:53:32.442Z,67.02
2023-03-26T04:54:33.337Z,67.02
2023-03-26T04:55:32.381Z,67.05
2023-03-26T04:56:32.423Z,67.08
2023-03-26T04:57:32.342Z,67.06
2023-03-26T04:58:32.331Z,67.05
2023-03-26T04:59:32.298Z,67.06
2023-03-26T05:00:33.286Z,67.06
2023-03-26T05:01:32.366Z,67.05
2023-03-26T05:02:32.299Z,67.04
2023-03-26T05:03:32.301Z,67.03
2023-03-26T05:04:32.253Z,67.01
2023-03-26T05:05:32.238Z,67.00
2023-03-26T05:06:33.195Z,66.97
2023-03-26T05:07:32.218Z,66.96
2023-03-26T05:08:32.202Z,66.96
2023-03-26T05:09:32.234Z,66.93
2023-03-26T05:10:32.166Z,66.91
2023-03-26T05:11:33.278Z,66.89
2023-03-26T05:12:32.177Z,66.91
2023-03-26T05:13:32.130Z,66.88
2023-03-26T05:14:32.135Z,66.84
2023-03-26T05:15:32.099Z,66.80
2023-03-26T05:16:32.211Z,66.76
2023-03-26T05:17:33.095Z,66.77
2023-03-26T05:18:32.098Z,66.75
2023-03-26T05:19:32.087Z,66.68
2023-03-26T05:20:32.036Z,66.65
2023-03-26T05:21:32.024Z,66.60
2023-03-26T05:22:32.049Z,66.57
2023-03-26T05:23:32.932Z,66.55
2023-03-26T05:24:31.985Z,66.54
2023-03-26T05:25:31.993Z,66.54
2023-03-26T05:26:32.032Z,66.50
2023-03-26T05:27:31.989Z,66.50
2023-03-26T05:28:32.936Z,66.48
2023-03-26T05:29:31.942Z,66.45
2023-03-26T05:30:31.954Z,66.38
2023-03-26T05:31:31.918Z,66.36
2023-03-26T05:32:31.971Z,66.33
2023-03-26T05:33:31.996Z,66.30
2023-03-26T05:34:32.818Z,66.29
2023-03-26T05:35:31.894Z,66.28
2023-03-26T05:36:31.876Z,66.27
2023-03-26T05:37:31.825Z,66.26
2023-03-26T05:38:31.862Z,66.25
2023-03-26T05:39:32.786Z,66.26
2023-03-26T05:40:31.856Z,66.24
2023-03-26T05:41:31.802Z,66.19
2023-03-26T05:42:31.789Z,66.17
2023-03-26T05:43:31.782Z,66.11
2023-03-26T05:44:31.742Z,66.07
2023-03-26T05:45:32.690Z,66.03
2023-03-26T05:46:31.800Z,65.95
2023-03-26T05:47:31.747Z,65.89
2023-03-26T05:48:31.712Z,65.86
2023-03-26T05:49:31.673Z,65.85
2023-03-26T05:50:31.682Z,65.82
2023-03-26T05:51:32.601Z,65.78
2023-03-26T05:52:31.700Z,65.78
2023-03-26T05:53:31.686Z,65.78
2023-03-26T05:54:31.608Z,65.77
2023-03-26T05:55:31.631Z,65.75
2023-03-26T05:56:32.654Z,65.72
2023-03-26T05:57:31.566Z,65.72
2023-03-26T05:58:31.577Z,65.73
2023-03-26T05:59:31.567Z,65.76
2023-03-26T06:00:31.545Z,65.79
2023-03-26T06:01:31.519Z,65.78
2023-03-26T06:02:32.511Z,65.75
2023-03-26T06:03:31.670Z,65.70
2023-03-26T06:04:31.612Z,65.64
2023-03-26T06:05:31.501Z,65.61
2023-03-26T06:06:33.089Z,65.59
2023-03-26T06:07:31.449Z,65.58
2023-03-26T06:08:32.424Z,65.58
2023-03-26T06:09:31.461Z,65.61
2023-03-26T06:10:31.567Z,65.67
2023-03-26T06:11:31.403Z,65.76
2023-03-26T06:12:31.423Z,65.83
2023-03-26T06:13:31.416Z,65.91
2023-03-26T06:14:32.411Z,65.97
2023-03-26T06:15:31.345Z,65.99
2023-03-26T06:16:31.376Z,66.01
2023-03-26T06:17:31.372Z,65.98
2023-03-26T06:18:31.337Z,65.96
2023-03-26T06:19:31.371Z,65.95
2023-03-26T06:20:32.313Z,65.91
2023-03-26T06:21:31.281Z,65.80
2023-03-26T06:22:31.281Z,65.65
2023-03-26T06:23:31.248Z,65.47
2023-03-26T06:24:31.305Z,65.36
2023-03-26T06:25:31.244Z,65.31
2023-03-26T06:26:32.145Z,65.22
2023-03-26T06:27:32.103Z,65.10
2023-03-26T06:28:31.178Z,64.97
2023-03-26T06:29:31.176Z,64.89
2023-03-26T06:30:31.155Z,64.95
2023-03-26T06:31:31.190Z,64.98
2023-03-26T06:32:32.146Z,64.95
2023-03-26T06:33:31.100Z,64.89
2023-03-26T06:34:31.119Z,64.87
2023-03-26T06:35:31.261Z,64.83
2023-03-26T06:36:31.165Z,64.83
2023-03-26T06:37:31.110Z,64.83
2023-03-26T06:38:32.093Z,64.79
2023-03-26T06:39:31.027Z,64.74
2023-03-26T06:40:31.067Z,64.68
2023-03-26T06:41:31.072Z,64.57
2023-03-26T06:43:07.094Z,64.49
2023-03-26T06:43:32.008Z,64.42
2023-03-26T06:44:31.913Z,64.50
2023-03-26T06:45:30.955Z,64.53
2023-03-26T06:46:31.152Z,64.54
2023-03-26T06:47:31.057Z,64.45
2023-03-26T06:48:30.966Z,64.29
2023-03-26T06:49:31.844Z,64.22
2023-03-26T06:50:30.929Z,64.16
2023-03-26T06:51:30.914Z,64.02
2023-03-26T06:52:30.912Z,63.87
2023-03-26T06:53:30.872Z,63.76
2023-03-26T06:54:31.804Z,63.80
2023-03-26T06:55:30.867Z,63.98
2023-03-26T06:56:30.893Z,64.11
2023-03-26T06:57:30.821Z,64.20
2023-03-26T06:58:30.849Z,64.22
2023-03-26T06:59:30.821Z,64.32
2023-03-26T07:00:31.766Z,64.39
2023-03-26T07:01:30.848Z,64.35
2023-03-26T07:02:30.823Z,64.26
2023-03-26T07:03:30.734Z,64.13
2023-03-26T07:04:30.987Z,63.97
2023-03-26T07:05:31.659Z,63.75
2023-03-26T07:06:30.726Z,63.61
2023-03-26T07:07:30.741Z,63.53
2023-03-26T07:08:30.682Z,63.49
2023-03-26T07:09:30.684Z,63.43
2023-03-26T07:10:30.644Z,63.36
2023-03-26T07:11:31.599Z,63.35
2023-03-26T07:12:30.620Z,63.39
2023-03-26T07:13:30.596Z,63.41
2023-03-26T07:14:30.662Z,63.37
2023-03-26T07:15:30.580Z,63.30
2023-03-26T07:16:30.680Z,63.18
2023-03-26T07:17:31.558Z,63.09
2023-03-26T07:18:30.568Z,63.06
2023-03-26T07:19:30.614Z,63.01
2023-03-26T07:20:30.516Z,62.93
2023-03-26T07:21:30.522Z,62.82
2023-03-26T07:22:31.452Z,62.65
2023-03-26T07:23:30.541Z,62.39
2023-03-26T07:24:30.471Z,62.22
2023-03-26T07:25:30.503Z,62.21
2023-03-26T07:26:30.501Z,62.23
2023-03-26T07:27:30.424Z,62.24
2023-03-26T07:28:31.378Z,62.27
2023-03-26T07:29:30.449Z,62.36
2023-03-26T07:30:30.412Z,62.50
2023-03-26T07:31:30.471Z,62.62
2023-03-26T07:32:30.599Z,62.70
2023-03-26T07:33:31.291Z,62.69
2023-03-26T07:34:30.402Z,62.58
2023-03-26T07:35:30.449Z,62.54
2023-03-26T07:36:30.396Z,62.56
2023-03-26T07:37:30.307Z,62.56
2023-03-26T07:38:31.238Z,62.60
2023-03-26T07:39:30.300Z,62.67
2023-03-26T07:40:30.318Z,62.78
2023-03-26T07:41:30.273Z,62.87
2023-03-26T07:42:30.237Z,62.96
2023-03-26T07:43:30.253Z,62.99
2023-03-26T07:44:31.457Z,62.97
2023-03-26T07:45:30.252Z,62.95
2023-03-26T07:46:30.236Z,62.93
2023-03-26T07:47:30.220Z,62.92
2023-03-26T07:48:30.188Z,62.91
2023-03-26T07:49:30.161Z,62.91
2023-03-26T07:50:31.062Z,62.88
2023-03-26T07:51:30.137Z,62.85
2023-03-26T07:52:30.151Z,62.79
2023-03-26T07:53:30.138Z,62.74
2023-03-26T07:54:30.091Z,62.66
2023-03-26T07:55:31.048Z,62.55
2023-03-26T07:56:30.124Z,62.42
2023-03-26T07:57:30.241Z,62.33
2023-03-26T07:58:30.117Z,62.29
2023-03-26T07:59:30.018Z,62.31
2023-03-26T08:00:30.947Z,62.33
2023-03-26T08:01:30.060Z,62.37
2023-03-26T08:02:30.078Z,62.41
2023-03-26T08:03:30.075Z,62.47
2023-03-26T08:04:30.055Z,62.53
2023-03-26T08:05:29.960Z,62.54
2023-03-26T08:06:30.880Z,62.64
2023-03-26T08:07:30.150Z,62.69
2023-03-26T08:08:29.915Z,62.77
2023-03-26T08:09:29.888Z,62.85
2023-03-26T08:10:29.937Z,62.93
2023-03-26T08:11:29.957Z,63.01
2023-03-26T08:12:30.857Z,63.06
2023-03-26T08:13:29.872Z,63.15
2023-03-26T08:14:30.029Z,63.27
2023-03-26T08:15:29.873Z,63.36
2023-03-26T08:16:29.947Z,63.43
2023-03-26T08:17:31.240Z,63.45
2023-03-26T08:18:30.784Z,63.33
2023-03-26T08:19:29.798Z,63.12
2023-03-26T08:20:29.758Z,62.87
2023-03-26T08:21:29.769Z,62.64
2023-03-26T08:22:29.754Z,62.52
2023-03-26T08:23:29.733Z,62.47
2023-03-26T08:24:30.711Z,62.49
2023-03-26T08:25:29.720Z,62.50
2023-03-26T08:26:29.702Z,62.48
2023-03-26T08:27:29.678Z,62.41
2023-03-26T08:28:29.655Z,62.25
2023-03-26T08:29:29.732Z,62.17
2023-03-26T08:30:30.622Z,62.21
2023-03-26T08:31:29.711Z,62.30
2023-03-26T08:32:29.701Z,62.28
2023-03-26T08:33:29.609Z,62.20
2023-03-26T08:34:29.691Z,62.08
2023-03-26T08:35:30.516Z,61.88
2023-03-26T08:36:29.640Z,61.87
2023-03-26T08:37:29.602Z,61.77
2023-03-26T08:38:29.592Z,61.66
2023-03-26T08:39:29.556Z,61.79
2023-03-26T08:40:30.484Z,61.82
2023-03-26T08:41:29.517Z,61.75
2023-03-26T08:42:29.472Z,61.61
2023-03-26T08:43:29.453Z,61.52
2023-03-26T08:44:29.484Z,61.41
2023-03-26T08:45:29.468Z,61.23
2023-03-26T08:46:30.456Z,60.99
2023-03-26T08:47:29.463Z,60.79
2023-03-26T08:48:29.408Z,60.71
2023-03-26T08:49:29.849Z,60.63
2023-03-26T08:50:29.404Z,60.55
2023-03-26T08:51:29.382Z,60.50
2023-03-26T08:52:30.291Z,60.45
2023-03-26T08:53:29.379Z,60.40
2023-03-26T08:54:30.411Z,60.34
2023-03-26T08:55:29.343Z,60.26
2023-03-26T08:56:29.331Z,60.17
2023-03-26T08:57:29.306Z,60.21
2023-03-26T08:58:31.191Z,60.28
2023-03-26T08:59:29.342Z,60.28
2023-03-26T09:00:29.280Z,60.07
2023-03-26T09:01:29.331Z,59.81
2023-03-26T09:02:29.277Z,59.60
2023-03-26T09:03:29.226Z,59.41
2023-03-26T09:04:30.989Z,59.29
2023-03-26T09:05:29.243Z,59.16
2023-03-26T09:06:29.199Z,58.94
2023-03-26T09:07:29.227Z,58.74
2023-03-26T09:08:30.063Z,58.65
2023-03-26T09:09:30.138Z,58.63
2023-03-26T09:10:29.188Z,58.62
2023-03-26T09:11:30.054Z,58.57
2023-03-26T09:12:29.147Z,58.61
2023-03-26T09:13:29.218Z,58.65
2023-03-26T09:14:30.015Z,58.71
2023-03-26T09:15:29.048Z,58.82
2023-03-26T09:16:29.098Z,59.16
2023-03-26T09:17:29.114Z,59.42
2023-03-26T09:18:29.107Z,59.64
2023-03-26T09:19:29.109Z,59.82
2023-03-26T09:20:30.053Z,59.98
2023-03-26T09:21:28.992Z,60.13
2023-03-26T09:22:29.000Z,60.26
2023-03-26T09:23:29.078Z,60.43
2023-03-26T09:24:28.982Z,60.59
2023-03-26T09:25:29.903Z,60.72
2023-03-26T09:26:28.969Z,60.73
2023-03-26T09:27:28.927Z,60.68
2023-03-26T09:28:28.941Z,60.72
2023-03-26T09:29:30.460Z,60.86
2023-03-26T09:30:29.843Z,61.07
2023-03-26T09:31:28.915Z,61.19
2023-03-26T09:32:28.939Z,61.24
2023-03-26T09:33:28.878Z,61.28
2023-03-26T09:34:28.960Z,61.29
2023-03-26T09:35:28.877Z,61.23
2023-03-26T09:36:29.805Z,61.20
2023-03-26T09:37:28.810Z,61.23
2023-03-26T09:38:29.040Z,61.51
2023-03-26T09:39:28.750Z,61.98
2023-03-26T09:40:28.926Z,62.29
2023-03-26T09:41:28.773Z,62.42
2023-03-26T09:42:29.677Z,62.63
2023-03-26T09:43:28.728Z,62.94
2023-03-26T09:44:28.792Z,63.17
2023-03-26T09:45:28.727Z,63.35
2023-03-26T09:46:28.676Z,63.52
2023-03-26T09:47:29.659Z,63.63
2023-03-26T09:48:28.653Z,63.64
2023-03-26T09:49:28.856Z,63.69
2023-03-26T09:50:28.624Z,63.73
2023-03-26T09:51:28.604Z,63.76
2023-03-26T09:52:28.679Z,63.87
2023-03-26T09:53:29.536Z,63.85
2023-03-26T09:54:28.645Z,63.47
2023-03-26T09:55:28.562Z,62.89
2023-03-26T09:56:28.593Z,62.35
2023-03-26T09:57:28.648Z,61.99
2023-03-26T09:58:29.502Z,61.75
2023-03-26T09:59:28.530Z,61.63
2023-03-26T10:00:28.553Z,61.51
2023-03-26T10:01:28.490Z,61.15
2023-03-26T10:02:46.575Z,60.76
2023-03-26T10:03:31.008Z,60.24
2023-03-26T10:04:29.388Z,59.76
2023-03-26T10:05:28.450Z,59.35
2023-03-26T10:06:28.460Z,59.15
2023-03-26T10:07:28.389Z,59.11
2023-03-26T10:08:30.219Z,59.22
2023-03-26T10:09:29.322Z,59.49
2023-03-26T10:10:28.512Z,59.82
2023-03-26T10:11:28.379Z,60.13
2023-03-26T10:12:28.358Z,60.24
2023-03-26T10:13:28.350Z,60.21
2023-03-26T10:14:28.422Z,60.09
2023-03-26T10:15:29.325Z,60.09
2023-03-26T10:16:28.541Z,60.31
2023-03-26T10:17:28.393Z,60.42
2023-03-26T10:18:29.522Z,60.62
2023-03-26T10:19:28.280Z,60.86
2023-03-26T10:20:29.196Z,61.09
2023-03-26T10:21:28.638Z,61.32
2023-03-26T10:22:28.213Z,61.65
2023-03-26T10:23:28.193Z,61.91
2023-03-26T10:24:28.211Z,62.09
2023-03-26T10:25:29.239Z,62.15
2023-03-26T10:26:28.155Z,62.16
2023-03-26T10:27:28.161Z,62.17
2023-03-26T10:28:28.153Z,62.14
2023-03-26T10:29:28.163Z,62.04
2023-03-26T10:30:29.177Z,61.93
2023-03-26T10:31:28.206Z,61.80
2023-03-26T10:32:28.198Z,61.71
2023-03-26T10:33:28.079Z,61.70
2023-03-26T10:34:29.180Z,61.63
2023-03-26T10:35:28.042Z,61.45
2023-03-26T10:36:29.005Z,61.21
2023-03-26T10:37:28.191Z,61.11
2023-03-26T10:38:28.014Z,61.15
2023-03-26T10:39:36.130Z,61.04
2023-03-26T10:40:30.448Z,61.02
2023-03-26T10:41:28.953Z,61.09
2023-03-26T10:42:27.993Z,61.08
2023-03-26T10:43:27.950Z,60.94
2023-03-26T10:44:27.935Z,60.84
2023-03-26T10:45:27.998Z,60.87
2023-03-26T10:46:28.933Z,61.05
2023-03-26T10:47:27.912Z,61.26
2023-03-26T10:48:27.917Z,61.41
2023-03-26T10:49:27.887Z,61.58
2023-03-26T10:50:27.878Z,61.74
2023-03-26T10:51:28.808Z,61.87
2023-03-26T10:52:27.806Z,61.79
2023-03-26T10:53:27.858Z,61.67
2023-03-26T10:54:27.807Z,61.61
2023-03-26T10:55:27.786Z,61.48
2023-03-26T10:56:27.781Z,61.30
2023-03-26T10:57:28.676Z,61.18
2023-03-26T10:58:27.774Z,61.16
2023-03-26T10:59:27.735Z,61.27
2023-03-26T11:00:27.748Z,61.48
2023-03-26T11:01:27.775Z,61.69
2023-03-26T11:02:29.291Z,61.81
2023-03-26T11:03:28.622Z,61.62
2023-03-26T11:04:27.664Z,61.16
2023-03-26T11:05:27.710Z,60.46
2023-03-26T11:06:27.729Z,59.53
2023-03-26T11:07:27.715Z,58.76
2023-03-26T11:08:31.579Z,58.06
2023-03-26T11:09:27.671Z,57.29
2023-03-26T11:10:27.630Z,57.45
2023-03-26T11:11:27.614Z,58.10
2023-03-26T11:12:28.600Z,58.68
2023-03-26T11:13:28.594Z,58.91
2023-03-26T11:14:34.333Z,59.07
2023-03-26T11:15:29.139Z,58.93
2023-03-26T11:16:27.567Z,58.40
2023-03-26T11:17:40.490Z,58.01
2023-03-26T11:18:29.930Z,57.74
2023-03-26T11:19:27.481Z,57.31
2023-03-26T11:20:27.540Z,56.88
2023-03-26T11:21:27.499Z,56.44
2023-03-26T11:22:27.452Z,55.36
2023-03-26T11:23:28.400Z,55.53
2023-03-26T11:24:27.522Z,55.68
2023-03-26T11:25:27.445Z,55.86
2023-03-26T11:26:27.459Z,56.29
2023-03-26T11:27:27.379Z,56.79
2023-03-26T11:28:28.323Z,57.38
2023-03-26T11:29:31.107Z,57.75
2023-03-26T11:30:28.888Z,58.57
2023-03-26T11:31:27.471Z,59.39
2023-03-26T11:32:27.422Z,60.13
2023-03-26T11:33:32.761Z,60.78
2023-03-26T11:34:27.358Z,61.33
2023-03-26T11:35:40.807Z,61.81
2023-03-26T11:36:28.839Z,62.22
2023-03-26T11:37:27.286Z,62.44
2023-03-26T11:38:28.157Z,62.22
2023-03-26T11:39:27.411Z,61.72
2023-03-26T11:40:27.257Z,61.38
2023-03-26T11:41:27.313Z,61.08
2023-03-26T11:42:27.220Z,60.86
2023-03-26T11:43:28.144Z,60.60
2023-03-26T11:44:27.187Z,60.59
2023-03-26T11:45:27.213Z,60.78
2023-03-26T11:46:27.225Z,60.91
2023-03-26T11:47:27.210Z,60.88
2023-03-26T11:48:27.163Z,61.04
2023-03-26T11:49:28.101Z,61.34
2023-03-26T11:50:27.164Z,61.53
2023-03-26T11:51:27.089Z,61.68
2023-03-26T11:52:27.092Z,61.82
2023-03-26T11:53:27.120Z,61.94
2023-03-26T11:54:33.721Z,61.98
2023-03-26T11:55:27.123Z,61.74
2023-03-26T11:56:27.084Z,61.35
2023-03-26T11:57:27.053Z,61.28
2023-03-26T11:58:27.098Z,61.37
2023-03-26T11:59:27.947Z,61.36
2023-03-26T12:00:27.981Z,61.40
2023-03-26T12:01:26.963Z,61.56
2023-03-26T12:02:27.042Z,61.78
2023-03-26T12:03:26.970Z,61.88
2023-03-26T12:04:27.789Z,61.88
2023-03-26T12:05:27.841Z,61.93
2023-03-26T12:06:27.332Z,61.91
2023-03-26T12:07:26.897Z,61.88
2023-03-26T12:08:26.876Z,61.80
2023-03-26T12:09:26.909Z,61.58
2023-03-26T12:10:26.851Z,61.46
2023-03-26T12:11:27.844Z,61.45
2023-03-26T12:12:26.805Z,61.36
2023-03-26T12:13:26.799Z,61.21
2023-03-26T12:14:26.779Z,61.04
2023-03-26T12:15:26.826Z,60.77
2023-03-26T12:16:27.785Z,60.62
2023-03-26T12:17:31.278Z,60.43
2023-03-26T12:18:28.231Z,59.80
2023-03-26T12:19:26.804Z,59.21
2023-03-26T12:20:26.805Z,58.98
2023-03-26T12:21:26.710Z,58.69
2023-03-26T12:22:27.638Z,58.39
2023-03-26T12:23:26.681Z,58.01
2023-03-26T12:24:26.670Z,57.76
2023-03-26T12:25:26.702Z,57.65
2023-03-26T12:26:26.611Z,57.52
2023-03-26T12:27:26.656Z,57.21
2023-03-26T12:28:27.556Z,56.90
2023-03-26T12:29:26.617Z,56.69
2023-03-26T12:30:26.638Z,56.62
2023-03-26T12:31:26.667Z,56.62
2023-03-26T12:32:32.583Z,56.70
2023-03-26T12:33:29.059Z,56.54
2023-03-26T12:34:26.533Z,56.10
2023-03-26T12:35:26.689Z,55.76
2023-03-26T12:36:26.514Z,55.42
2023-03-26T12:37:26.496Z,54.36
2023-03-26T12:38:27.438Z,53.59
2023-03-26T12:40:08.000Z,53.82
2023-03-26T12:40:27.439Z,54.02
2023-03-26T12:44:42.878Z,53.80
2023-03-26T12:44:48.304Z,54.40
2023-03-26T12:44:56.099Z,54.27
2023-03-26T12:44:56.099Z,54.92
2023-03-26T12:45:27.433Z,53.52
2023-03-26T12:47:57.630Z,52.90
2023-03-26T12:47:58.584Z,53.69
2023-03-26T12:48:28.349Z,54.96
2023-03-26T12:49:26.381Z,55.93
2023-03-26T12:50:34.210Z,56.80
2023-03-26T12:51:27.789Z,57.18
2023-03-26T12:52:26.310Z,56.99
2023-03-26T12:53:27.227Z,56.28